Open Full Screen Window  High Contrast Mode
August 04, 2015 9:15 PM CDT
Weather Information
Wind Direction
  ---
Wind Speed
  00 kt (0 mph)
Wind Gust
  00 kt (0 mph)
Altimeter
30.03 in
Visibility
10 SM
Temperature
20° C
68° F
Dewpoint
18° C
64° F
Humidity
88%
Sky Condition
Clear
VFR

METAR KAXV 050215Z AUTO 00000KT 10SM CLR 20/18 A3003 RMK AO2

*Background is not an actual portrayal of the airport.